createdAt,value
2019-04-28T00:00:14.847Z,7.03
2019-04-28T00:05:16.450Z,3.57
2019-04-28T00:10:16.234Z,5.20
2019-04-28T00:15:16.198Z,7.43
2019-04-28T00:20:21.388Z,7.10
2019-04-28T00:25:24.538Z,7.63
2019-04-28T00:30:24.178Z,7.53
2019-04-28T00:35:25.444Z,5.37
2019-04-28T00:40:25.415Z,5.23
2019-04-28T00:45:25.074Z,4.90
2019-04-28T00:50:24.726Z,12.63
2019-04-28T00:55:24.472Z,13.43
2019-04-28T01:00:26.258Z,10.33
2019-04-28T01:05:25.912Z,7.80
2019-04-28T01:10:26.798Z,10.90
2019-04-28T01:15:59.410Z,8.20
2019-04-28T01:20:59.743Z,7.80
2019-04-28T01:26:00.061Z,12.60
2019-04-28T01:31:21.161Z,11.10
2019-04-28T01:36:20.678Z,5.33
2019-04-28T01:41:20.735Z,10.03
2019-04-28T01:46:20.407Z,13.50
2019-04-28T01:51:20.878Z,11.40
2019-04-28T01:56:21.006Z,11.07
2019-04-28T02:01:20.806Z,13.70
2019-04-28T02:06:20.603Z,12.57
2019-04-28T02:11:20.344Z,12.50
2019-04-28T02:16:19.998Z,9.67
2019-04-28T02:21:39.457Z,13.60
2019-04-28T02:26:40.297Z,11.73
2019-04-28T02:31:41.930Z,9.37
2019-04-28T02:36:41.486Z,11.47
2019-04-28T02:41:41.274Z,8.10
2019-04-28T02:46:41.634Z,8.57
2019-04-28T02:51:50.609Z,9.80
2019-04-28T02:56:51.022Z,9.13
2019-04-28T03:01:51.053Z,14.70
2019-04-28T03:06:51.883Z,8.13
2019-04-28T03:11:51.807Z,9.10
2019-04-28T03:16:51.540Z,9.97
2019-04-28T03:21:51.542Z,11.60
2019-04-28T03:27:07.162Z,16.17
2019-04-28T03:32:31.177Z,7.60
2019-04-28T03:37:13.019Z,13.10
2019-04-28T03:42:12.767Z,11.43
2019-04-28T03:47:12.401Z,12.57
2019-04-28T03:52:12.047Z,10.03
2019-04-28T03:57:11.791Z,12.10
2019-04-28T04:02:11.739Z,9.43
2019-04-28T04:07:11.539Z,11.90
2019-04-28T04:12:27.215Z,10.23
2019-04-28T04:17:34.027Z,8.03
2019-04-28T04:22:33.677Z,14.13
2019-04-28T04:27:33.331Z,9.10
2019-04-28T04:32:33.981Z,10.00
2019-04-28T04:37:33.902Z,8.17
2019-04-28T04:42:33.560Z,10.40
2019-04-28T04:47:33.218Z,6.77
2019-04-28T04:52:32.863Z,10.57
2019-04-28T04:57:32.870Z,10.80
2019-04-28T05:02:51.607Z,9.60
2019-04-28T05:07:47.066Z,10.80
2019-04-28T05:12:46.716Z,11.00
2019-04-28T05:17:46.459Z,15.03
2019-04-28T05:22:55.519Z,9.43
2019-04-28T05:27:59.339Z,8.60
2019-04-28T05:32:57.461Z,10.30
2019-04-28T05:37:57.298Z,11.00
2019-04-28T05:43:00.900Z,12.13
2019-04-28T05:48:01.713Z,8.50
2019-04-28T05:53:10.813Z,11.73
2019-04-28T05:58:30.184Z,10.93
2019-04-28T06:03:30.875Z,11.17
2019-04-28T06:08:36.810Z,14.10
2019-04-28T06:13:37.052Z,8.87
2019-04-28T06:18:36.690Z,9.63
2019-04-28T06:23:36.323Z,9.90
2019-04-28T06:28:36.058Z,7.60
2019-04-28T06:33:35.720Z,8.60
2019-04-28T06:38:35.736Z,7.33
2019-04-28T06:43:35.370Z,5.80
2019-04-28T06:48:35.412Z,10.10
2019-04-28T06:53:35.079Z,6.37
2019-04-28T06:58:34.988Z,7.97
2019-04-28T07:03:34.738Z,8.00
2019-04-28T07:08:34.403Z,11.10
2019-04-28T07:13:35.051Z,10.60
2019-04-28T07:18:34.766Z,11.90
2019-04-28T07:23:35.267Z,9.63
2019-04-28T07:28:34.904Z,9.50
2019-04-28T07:33:36.246Z,7.00
2019-04-28T07:38:36.460Z,10.13
2019-04-28T07:43:36.271Z,5.73
2019-04-28T07:48:36.915Z,14.90
2019-04-28T07:53:47.842Z,9.23
2019-04-28T07:58:47.504Z,7.97
2019-04-28T08:03:49.524Z,11.77
2019-04-28T08:08:48.922Z,8.33
2019-04-28T08:13:48.943Z,8.77
2019-04-28T08:18:48.603Z,12.50
2019-04-28T08:23:48.287Z,9.60
2019-04-28T08:28:49.244Z,12.00
2019-04-28T08:34:07.987Z,6.70
2019-04-28T08:39:08.200Z,9.70
2019-04-28T08:44:07.903Z,8.60
2019-04-28T08:49:07.683Z,11.10
2019-04-28T08:54:07.559Z,14.20
2019-04-28T08:59:07.267Z,8.83
2019-04-28T09:04:15.150Z,12.77
2019-04-28T09:09:14.287Z,10.00
2019-04-28T09:14:13.942Z,15.47
2019-04-28T09:19:14.086Z,9.20
2019-04-28T09:24:14.103Z,11.67
2019-04-28T09:29:14.058Z,7.30
2019-04-28T09:34:13.694Z,8.80
2019-04-28T09:39:15.351Z,9.93
2019-04-28T09:44:19.166Z,12.87
2019-04-28T09:49:18.955Z,12.33
2019-04-28T09:54:18.671Z,8.70
2019-04-28T09:59:19.684Z,5.47
2019-04-28T10:04:19.503Z,6.93
2019-04-28T10:09:19.206Z,9.10
2019-04-28T10:14:18.936Z,5.90
2019-04-28T10:19:18.770Z,11.70
2019-04-28T10:24:18.425Z,9.50
2019-04-28T10:29:18.376Z,8.23
2019-04-28T10:34:18.028Z,11.20
2019-04-28T10:39:39.949Z,7.23
2019-04-28T10:44:42.810Z,9.13
2019-04-28T10:49:43.199Z,6.23
2019-04-28T10:54:42.901Z,5.07
2019-04-28T10:59:42.847Z,5.77
2019-04-28T11:04:50.535Z,8.20
2019-04-28T11:09:56.883Z,2.90
2019-04-28T11:14:56.607Z,3.53
2019-04-28T11:19:56.613Z,6.53
2019-04-28T11:24:56.259Z,7.10
2019-04-28T11:29:55.994Z,2.97
2019-04-28T11:35:02.067Z,3.17
2019-04-28T11:40:01.816Z,2.57
2019-04-28T11:45:02.718Z,5.37
2019-04-28T11:50:02.447Z,2.63
2019-04-28T11:55:02.080Z,3.60
2019-04-28T12:00:03.795Z,2.87
2019-04-28T12:05:03.910Z,2.00
2019-04-28T12:10:10.755Z,2.40
2019-04-28T12:15:33.171Z,4.70
2019-04-28T12:20:32.914Z,2.80
2019-04-28T12:25:32.527Z,1.80
2019-04-28T12:30:32.166Z,3.77
2019-04-28T12:35:32.202Z,2.87
2019-04-28T12:40:32.110Z,3.00
2019-04-28T12:45:35.160Z,2.10
2019-04-28T12:50:38.899Z,2.20
2019-04-28T12:55:38.689Z,2.00
2019-04-28T13:01:00.603Z,1.77
2019-04-28T13:06:05.583Z,3.13
2019-04-28T13:11:04.147Z,1.50
2019-04-28T13:16:04.166Z,1.97
2019-04-28T13:21:03.863Z,1.50
2019-04-28T13:26:03.614Z,1.63
2019-04-28T13:31:03.318Z,2.00
2019-04-28T13:36:14.105Z,2.63
2019-04-28T13:41:04.583Z,4.23
2019-04-28T13:46:04.501Z,3.13
2019-04-28T13:51:04.355Z,3.50
2019-04-28T13:56:04.747Z,2.43
2019-04-28T14:01:22.649Z,4.77
2019-04-28T14:06:28.516Z,2.20
2019-04-28T14:11:24.903Z,4.83
2019-04-28T14:16:24.635Z,3.53
2019-04-28T14:21:24.264Z,2.73
2019-04-28T14:26:24.032Z,4.30
2019-04-28T14:31:23.774Z,2.93
2019-04-28T14:36:23.485Z,3.00
2019-04-28T14:41:23.478Z,2.80
2019-04-28T14:46:23.307Z,2.47
2019-04-28T14:51:23.362Z,3.83
2019-04-28T14:56:23.073Z,2.83
2019-04-28T15:01:54.144Z,2.80
2019-04-28T15:06:59.721Z,1.77
2019-04-28T15:12:04.550Z,2.53
2019-04-28T15:17:04.371Z,1.90
2019-04-28T15:22:04.339Z,2.43
2019-04-28T15:27:03.978Z,4.23
2019-04-28T15:32:03.655Z,1.93
2019-04-28T15:37:09.614Z,2.83
2019-04-28T15:42:04.765Z,3.57
2019-04-28T15:47:04.524Z,2.97
2019-04-28T15:52:04.357Z,3.07
2019-04-28T15:57:04.126Z,4.30
2019-04-28T16:02:03.782Z,2.90
2019-04-28T16:07:03.597Z,2.20
2019-04-28T16:12:03.333Z,4.00
2019-04-28T16:17:03.169Z,2.53
2019-04-28T16:22:02.822Z,2.70
2019-04-28T16:27:02.536Z,3.27
2019-04-28T16:32:02.321Z,2.03
2019-04-28T16:37:01.946Z,1.30
2019-04-28T16:42:02.352Z,3.20
2019-04-28T16:47:02.463Z,4.27
2019-04-28T16:52:02.100Z,2.37
2019-04-28T16:57:13.898Z,3.77
2019-04-28T17:02:34.719Z,2.90
2019-04-28T17:07:34.498Z,2.60
2019-04-28T17:12:34.483Z,4.30
2019-04-28T17:17:34.475Z,2.60
2019-04-28T17:22:34.118Z,1.60
2019-04-28T17:27:34.175Z,3.30
2019-04-28T17:32:33.790Z,1.40
2019-04-28T17:37:33.438Z,2.80
2019-04-28T17:42:34.128Z,4.90
2019-04-28T17:47:35.162Z,3.93
2019-04-28T17:52:34.939Z,3.03
2019-04-28T17:57:34.894Z,4.23
2019-04-28T18:02:56.664Z,2.97
2019-04-28T18:08:00.706Z,2.43
2019-04-28T18:13:01.158Z,4.33
2019-04-28T18:18:06.500Z,5.80
2019-04-28T18:23:07.194Z,2.40
2019-04-28T18:28:07.155Z,3.17
2019-04-28T18:33:24.812Z,2.77
2019-04-28T18:38:48.479Z,2.33
2019-04-28T18:44:07.226Z,2.47
2019-04-28T18:49:06.894Z,5.70
2019-04-28T18:54:06.611Z,3.07
2019-04-28T18:59:06.416Z,2.20
2019-04-28T19:04:06.505Z,3.47
2019-04-28T19:09:20.745Z,5.50
2019-04-28T19:14:34.206Z,2.43
2019-04-28T19:19:35.207Z,3.30
2019-04-28T19:24:35.316Z,2.53
2019-04-28T19:29:34.968Z,5.30
2019-04-28T19:34:34.635Z,3.87
2019-04-28T19:39:34.299Z,4.50
2019-04-28T19:44:34.452Z,5.83
2019-04-28T19:49:34.446Z,2.90
2019-04-28T19:54:37.442Z,2.30
2019-04-28T19:59:55.139Z,3.00
2019-04-28T20:04:54.850Z,2.43
2019-04-28T20:09:54.475Z,1.60
2019-04-28T20:14:54.140Z,1.87
2019-04-28T20:19:53.759Z,3.03
2019-04-28T20:24:53.559Z,3.07
2019-04-28T20:29:53.494Z,2.10
2019-04-28T20:34:53.472Z,2.87
2019-04-28T20:39:57.338Z,2.37
2019-04-28T20:44:57.067Z,6.07
2019-04-28T20:49:56.744Z,4.03
2019-04-28T20:54:57.871Z,3.13
2019-04-28T20:59:57.855Z,2.17
2019-04-28T21:04:58.477Z,2.60
2019-04-28T21:09:58.227Z,4.70
2019-04-28T21:14:58.183Z,3.03
2019-04-28T21:20:00.007Z,3.27
2019-04-28T21:24:59.668Z,3.83
2019-04-28T21:29:59.315Z,4.13
2019-04-28T21:34:59.390Z,3.17
2019-04-28T21:39:59.047Z,3.87
2019-04-28T21:45:23.412Z,4.83
2019-04-28T21:50:23.059Z,5.63
2019-04-28T21:55:22.711Z,4.03
2019-04-28T22:00:28.395Z,4.17
2019-04-28T22:05:46.280Z,3.27
2019-04-28T22:10:45.970Z,3.93
2019-04-28T22:15:46.562Z,4.63
2019-04-28T22:20:46.200Z,4.67
2019-04-28T22:25:45.838Z,5.47
2019-04-28T22:30:45.554Z,4.93
2019-04-28T22:35:45.202Z,4.17
2019-04-28T22:40:44.939Z,5.60
2019-04-28T22:45:44.699Z,6.00
2019-04-28T22:50:48.070Z,3.33
2019-04-28T22:55:53.242Z,3.57
2019-04-28T23:01:12.947Z,4.57
2019-04-28T23:06:13.996Z,3.23
2019-04-28T23:11:13.623Z,3.97
2019-04-28T23:16:13.359Z,8.47
2019-04-28T23:21:38.375Z,3.50
2019-04-28T23:26:39.299Z,5.33
2019-04-28T23:31:39.207Z,4.80
2019-04-28T23:36:39.814Z,3.80
2019-04-28T23:41:52.207Z,8.47
2019-04-28T23:46:56.135Z,5.10
2019-04-28T23:52:19.885Z,4.17
2019-04-28T23:57:19.542Z,3.73
